Time;durP1;ratioP1;P1;durP2;ratioP2;P2;SDS_P1;SDS_P2;PMS_P1;PMS_P2;Temp;Humidity;BMP_temperature;BMP_pressure;BME280_temperature;BME280_humidity;BME280_pressure;Samples;Min_cycle;Max_cycle;Signal;HPM_P1;HPM_P2
2022/03/05 00:01:32;;;;;;;23.30;11.10;;;;;1.98;97325.20;;;;110566;1252;41159;-64
2022/03/05 00:04:02;;;;;;;25.60;10.70;;;;;1.92;97329.40;;;;110535;1251;41148;-64
2022/03/05 00:06:32;;;;;;;19.90;9.90;;;;;1.90;97330.60;;;;110888;1250;41504;-63
2022/03/05 00:09:02;;;;;;;22.20;10.30;;;;;1.90;97327.00;;;;110713;1253;41155;-65
2022/03/05 00:11:32;;;;;;;19.90;9.90;;;;;1.90;97328.80;;;;110594;1252;41183;-65
2022/03/05 00:14:02;;;;;;;24.30;10.00;;;;;1.80;97328.40;;;;110593;1251;41172;-64
2022/03/05 00:16:31;;;;;;;19.90;9.50;;;;;1.80;97327.20;;;;110779;1251;41178;-64
2022/03/05 00:19:00;;;;;;;20.60;10.20;;;;;1.82;97327.40;;;;110787;1250;41525;-64
2022/03/05 00:21:30;;;;;;;19.30;10.20;;;;;1.86;97322.40;;;;110721;1251;41160;-66
2022/03/05 00:24:00;;;;;;;20.30;10.00;;;;;1.90;97324.60;;;;110626;1248;41469;-65
2022/03/05 00:26:30;;;;;;;23.90;9.90;;;;;1.90;97323.80;;;;110929;1250;41410;-64
2022/03/05 00:29:01;;;;;;;21.90;10.50;;;;;1.90;97322.60;;;;110646;1251;41134;-64
2022/03/05 00:31:31;;;;;;;24.20;11.60;;;;;1.90;97321.20;;;;110619;1253;41161;-64
2022/03/05 00:34:01;;;;;;;21.70;10.70;;;;;2.00;97322.40;;;;110686;1252;41254;-64
2022/03/05 00:36:30;;;;;;;23.00;11.40;;;;;2.00;97325.40;;;;110858;1250;41156;-65
2022/03/05 00:39:00;;;;;;;23.90;11.20;;;;;2.00;97324.60;;;;110675;1251;41266;-65
2022/03/05 00:41:30;;;;;;;23.40;11.20;;;;;2.00;97322.40;;;;110705;1251;41291;-65
2022/03/05 00:43:59;;;;;;;21.60;11.50;;;;;2.00;97321.60;;;;110673;1251;41156;-65
2022/03/05 00:46:29;;;;;;;20.50;10.80;;;;;2.04;97318.60;;;;110726;1250;42109;-65
2022/03/05 00:48:58;;;;;;;25.70;11.30;;;;;2.10;97318.40;;;;110933;1250;41427;-65
2022/03/05 00:51:28;;;;;;;23.90;10.80;;;;;2.10;97320.20;;;;110771;1250;41149;-65
2022/03/05 00:53:59;;;;;;;19.60;10.60;;;;;2.10;97323.80;;;;110735;1250;41161;-65
2022/03/05 00:56:29;;;;;;;20.40;9.90;;;;;2.14;97323.20;;;;111009;1251;41251;-63
2022/03/05 00:58:59;;;;;;;24.20;11.20;;;;;2.12;97319.60;;;;110713;1250;41173;-65
2022/03/05 01:01:30;;;;;;;22.80;11.20;;;;;2.20;97321.00;;;;110707;1250;41177;-65
2022/03/05 01:04:00;;;;;;;23.30;11.90;;;;;2.20;97317.00;;;;110739;1251;41177;-64
2022/03/05 01:06:31;;;;;;;22.50;11.40;;;;;2.20;97322.80;;;;110580;1251;41164;-63
2022/03/05 01:09:02;;;;;;;25.30;12.20;;;;;2.20;97320.00;;;;110806;1250;41603;-64
2022/03/05 01:11:31;;;;;;;;;;;;;2.20;97319.40;;;;110962;1251;42392;-66
2022/03/05 01:14:01;;;;;;;26.40;12.30;;;;;2.20;97320.40;;;;110719;1250;41151;-65
2022/03/05 01:16:31;;;;;;;27.40;13.10;;;;;2.20;97322.60;;;;110689;1250;41630;-63
2022/03/05 01:19:01;;;;;;;25.80;12.60;;;;;2.20;97322.60;;;;110655;1251;42507;-65
2022/03/05 01:21:31;;;;;;;22.70;12.30;;;;;2.20;97323.80;;;;110687;1250;41257;-65
2022/03/05 01:24:01;;;;;;;25.30;12.40;;;;;2.20;97327.20;;;;110848;1250;41136;-66
2022/03/05 01:26:32;;;;;;;27.70;13.40;;;;;2.22;97323.20;;;;110820;1251;41663;-64
2022/03/05 01:29:03;;;;;;;24.80;13.50;;;;;2.20;97319.40;;;;110740;1251;41986;-65
2022/03/05 01:31:33;;;;;;;22.70;12.10;;;;;2.24;97317.80;;;;110630;1250;41557;-65
2022/03/05 01:34:03;;;;;;;26.60;12.70;;;;;2.28;97317.80;;;;110643;1251;41154;-64
2022/03/05 01:36:32;;;;;;;27.00;12.90;;;;;2.30;97319.00;;;;110920;1249;42392;-63
2022/03/05 01:39:02;;;;;;;27.60;13.20;;;;;2.30;97321.80;;;;110751;1251;41283;-64
2022/03/05 01:41:34;;;;;;;23.10;11.60;;;;;2.30;97320.00;;;;110675;1250;41388;-64
2022/03/05 01:44:06;;;;;;;24.30;11.80;;;;;2.30;97316.20;;;;110849;1251;41160;-63
2022/03/05 01:46:38;;;;;;;24.00;13.50;;;;;2.30;97317.40;;;;110800;1250;41237;-64
2022/03/05 01:49:09;;;;;;;28.50;13.10;;;;;2.30;97316.20;;;;110606;1250;41617;-64
2022/03/05 01:51:40;;;;;;;25.40;12.40;;;;;2.30;97313.00;;;;110995;1250;41159;-64
2022/03/05 01:54:10;;;;;;;24.50;12.80;;;;;2.30;97312.20;;;;110705;1250;41498;-64
2022/03/05 01:56:41;;;;;;;28.40;12.90;;;;;2.30;97320.60;;;;110839;1250;41580;-64
2022/03/05 01:59:11;;;;;;;26.70;12.00;;;;;2.36;97321.80;;;;110615;1250;41163;-64
2022/03/05 02:01:42;;;;;;;22.20;10.90;;;;;2.40;97319.00;;;;110877;1250;41499;-64
2022/03/05 02:04:12;;;;;;;23.80;12.00;;;;;2.40;97323.00;;;;110632;1251;41163;-65
2022/03/05 02:06:42;;;;;;;21.90;10.70;;;;;2.40;97327.40;;;;110744;1249;41948;-66
2022/03/05 02:09:14;;;;;;;23.30;12.00;;;;;2.40;97328.60;;;;111102;1250;41311;-65
2022/03/05 02:11:44;;;;;;;23.40;11.30;;;;;2.40;97330.40;;;;110641;1250;41145;-64
2022/03/05 02:14:18;;;;;;;26.80;11.90;;;;;2.40;97329.20;;;;110729;1250;41258;-63
2022/03/05 02:16:48;;;;;;;26.90;13.30;;;;;2.40;97333.40;;;;110582;1252;41187;-64
2022/03/05 02:19:18;;;;;;;26.70;12.80;;;;;2.40;97329.20;;;;110625;1251;41159;-63
2022/03/05 02:21:48;;;;;;;27.10;12.40;;;;;2.40;97331.20;;;;110583;1252;41743;-66
2022/03/05 02:24:31;;;;;;;24.80;12.40;;;;;2.40;97330.00;;;;110571;1253;41153;-64
2022/03/05 02:27:03;;;;;;;27.30;13.10;;;;;2.40;97326.80;;;;110547;1252;41621;-65
2022/03/05 02:29:34;;;;;;;24.50;12.40;;;;;2.40;97331.00;;;;110747;1250;41144;-65
2022/03/05 02:32:04;;;;;;;25.30;12.40;;;;;2.40;97329.40;;;;110621;1252;41340;-65
2022/03/05 02:34:35;;;;;;;29.40;13.30;;;;;2.40;97331.60;;;;110521;1252;41786;-66
2022/03/05 02:37:04;;;;;;;23.40;12.40;;;;;2.40;97335.20;;;;110371;1253;41162;-64
2022/03/05 02:39:35;;;;;;;;;;;;;2.40;97332.20;;;;110438;1254;42313;-64
2022/03/05 02:42:05;;;;;;;26.70;12.60;;;;;2.40;97334.80;;;;110575;1252;41185;-64
2022/03/05 02:44:35;;;;;;;23.60;12.50;;;;;2.40;97337.00;;;;110183;1252;414371;-64
2022/03/05 02:47:06;;;;;;;29.50;12.80;;;;;2.42;97330.20;;;;110688;1253;41262;-64
2022/03/05 02:49:36;;;;;;;28.10;13.30;;;;;2.46;97334.40;;;;110695;1252;41817;-63
2022/03/05 02:52:07;;;;;;;26.30;13.40;;;;;2.48;97331.60;;;;110643;1252;41269;-64
2022/03/05 02:54:38;;;;;;;27.00;14.40;;;;;2.50;97335.60;;;;110760;1251;42200;-64
2022/03/05 02:57:08;;;;;;;;;;;;;2.48;97339.00;;;;110449;1253;41737;-65
2022/03/05 02:59:39;;;;;;;28.50;13.10;;;;;2.40;97337.80;;;;110762;1252;41131;-64
2022/03/05 03:02:09;;;;;;;26.40;12.40;;;;;2.40;97336.60;;;;110560;1252;41150;-65
2022/03/05 03:04:39;;;;;;;25.60;13.10;;;;;2.42;97339.80;;;;110830;1252;41249;-63
2022/03/05 03:07:09;;;;;;;23.40;12.70;;;;;2.40;97339.60;;;;110602;1251;41144;-64
2022/03/05 03:09:39;;;;;;;24.70;12.00;;;;;2.42;97340.20;;;;110850;1251;41151;-65
2022/03/05 03:12:09;;;;;;;24.00;12.20;;;;;2.48;97344.00;;;;110652;1251;41144;-64
2022/03/05 03:14:39;;;;;;;21.90;11.70;;;;;2.46;97337.60;;;;110644;1252;41585;-65
2022/03/05 03:17:10;;;;;;;24.90;12.60;;;;;2.48;97344.40;;;;110653;1251;41269;-64
2022/03/05 03:19:40;;;;;;;26.50;12.90;;;;;2.50;97345.40;;;;110909;1251;41886;-65
2022/03/05 03:22:11;;;;;;;26.70;13.00;;;;;2.50;97340.20;;;;110715;1251;41904;-65
2022/03/05 03:24:44;;;;;;;23.40;12.30;;;;;2.50;97343.40;;;;110641;1251;41295;-65
2022/03/05 03:27:14;;;;;;;27.70;13.30;;;;;2.50;97341.80;;;;110740;1251;41286;-64
2022/03/05 03:29:43;;;;;;;22.90;12.30;;;;;2.50;97348.40;;;;110672;1251;41148;-63
2022/03/05 03:32:13;;;;;;;26.50;13.50;;;;;2.50;97343.40;;;;110846;1250;41260;-64
2022/03/05 03:34:44;;;;;;;26.90;13.40;;;;;2.50;97342.00;;;;110722;1250;42193;-64
2022/03/05 03:37:14;;;;;;;24.60;12.80;;;;;2.50;97345.40;;;;110791;1251;41515;-64
2022/03/05 03:39:44;;;;;;;25.50;12.80;;;;;2.50;97341.60;;;;110888;1251;41439;-66
2022/03/05 03:42:15;;;;;;;24.30;13.10;;;;;2.50;97344.40;;;;110770;1251;41712;-64
2022/03/05 03:44:44;;;;;;;23.20;12.00;;;;;2.50;97341.40;;;;110665;1251;41255;-63
2022/03/05 03:47:14;;;;;;;24.10;13.40;;;;;2.46;97339.60;;;;110675;1251;41147;-65
2022/03/05 03:49:46;;;;;;;26.60;12.90;;;;;2.40;97349.40;;;;110651;1252;41144;-64
2022/03/05 03:52:16;;;;;;;24.40;12.00;;;;;2.40;97345.20;;;;110783;1251;41138;-64
2022/03/05 03:54:47;;;;;;;27.90;13.20;;;;;2.40;97344.60;;;;110808;1251;41928;-65
2022/03/05 03:57:16;;;;;;;;;;;;;2.30;97350.00;;;;110666;1253;41189;-65
2022/03/05 03:59:47;;;;;;;24.30;12.50;;;;;2.30;97349.20;;;;110740;1252;41153;-64
2022/03/05 04:02:17;;;;;;;26.40;13.00;;;;;2.20;97348.20;;;;110673;1251;41266;-64
2022/03/05 04:04:48;;;;;;;29.20;13.60;;;;;2.18;97349.80;;;;110809;1251;41151;-64
2022/03/05 04:10:07;;;;;;;32.70;16.00;;;;;2.00;97356.40;;;;110761;1251;41177;-65
2022/03/05 04:12:39;;;;;;;26.80;13.10;;;;;1.90;97356.40;;;;110819;1251;41604;-65
2022/03/05 04:15:10;;;;;;;23.90;11.60;;;;;1.90;97359.00;;;;110932;1250;41967;-65
2022/03/05 04:17:39;;;;;;;20.50;10.60;;;;;1.90;97366.00;;;;110783;1251;41648;-65
2022/03/05 04:20:11;;;;;;;24.10;11.50;;;;;1.90;97364.20;;;;110973;1250;41856;-66
2022/03/05 04:22:40;;;;;;;21.40;11.20;;;;;1.90;97369.00;;;;110886;1252;41255;-65
2022/03/05 04:25:10;;;;;;;23.80;11.20;;;;;1.90;97373.40;;;;110644;1251;41146;-63
2022/03/05 04:27:40;;;;;;;21.90;11.30;;;;;1.88;97376.00;;;;111017;1250;41659;-65
2022/03/05 04:30:11;;;;;;;22.50;11.00;;;;;1.88;97372.60;;;;110856;1251;41140;-67
2022/03/05 04:32:41;;;;;;;22.10;11.00;;;;;1.90;97380.40;;;;110856;1250;41138;-65
2022/03/05 04:35:11;;;;;;;24.90;11.20;;;;;1.90;97380.20;;;;110990;1251;42393;-64
2022/03/05 04:37:41;;;;;;;20.80;10.50;;;;;1.90;97377.80;;;;110765;1250;41621;-64
2022/03/05 04:40:10;;;;;;;21.20;10.30;;;;;1.88;97386.20;;;;110694;1252;41239;-65
2022/03/05 04:42:41;;;;;;;29.60;13.50;;;;;1.86;97387.20;;;;110720;1251;41269;-65
2022/03/05 04:45:12;;;;;;;28.00;12.20;;;;;1.74;97396.00;;;;110962;1251;41296;-65
2022/03/05 04:47:42;;;;;;;28.60;14.10;;;;;1.70;97398.40;;;;110582;1250;42065;-65
2022/03/05 04:50:12;;;;;;;23.20;11.70;;;;;1.70;97397.60;;;;110528;1251;41829;-65
2022/03/05 04:52:41;;;;;;;27.50;13.50;;;;;1.70;97397.20;;;;110822;1250;41160;-66
2022/03/05 04:55:12;;;;;;;30.30;14.80;;;;;1.64;97404.00;;;;110897;1251;41155;-64
2022/03/05 04:57:41;;;;;;;26.80;12.90;;;;;1.52;97404.60;;;;110658;1250;41189;-65
2022/03/05 05:00:12;;;;;;;30.40;13.80;;;;;1.50;97405.40;;;;110724;1250;41254;-64
2022/03/05 05:02:42;;;;;;;30.70;14.50;;;;;1.48;97412.60;;;;110568;1251;41898;-65
2022/03/05 05:05:12;;;;;;;29.50;13.70;;;;;1.44;97414.20;;;;110743;1250;42080;-65
2022/03/05 05:07:42;;;;;;;31.70;14.00;;;;;1.46;97421.00;;;;110665;1254;41802;-65
2022/03/05 05:10:12;;;;;;;25.00;11.60;;;;;1.42;97419.20;;;;110667;1251;41178;-63
2022/03/05 05:12:41;;;;;;;28.80;13.90;;;;;1.48;97419.60;;;;110826;1250;41164;-64
2022/03/05 05:15:11;;;;;;;28.70;14.30;;;;;1.48;97418.20;;;;110830;1250;41770;-65
2022/03/05 05:17:40;;;;;;;25.00;12.20;;;;;1.50;97421.00;;;;111004;1250;41257;-65
2022/03/05 05:20:11;;;;;;;30.20;14.30;;;;;1.50;97422.60;;;;110819;1250;42579;-65
2022/03/05 05:22:41;;;;;;;29.00;13.30;;;;;1.40;97421.80;;;;110719;1251;41940;-65
2022/03/05 05:25:10;;;;;;;24.70;11.80;;;;;1.46;97423.60;;;;110804;1251;41147;-65
2022/03/05 05:27:40;;;;;;;27.10;12.70;;;;;1.50;97424.60;;;;110722;1250;42405;-65
2022/03/05 05:30:10;;;;;;;27.10;13.30;;;;;1.50;97423.20;;;;110903;1250;41154;-65
2022/03/05 05:32:39;;;;;;;27.50;13.10;;;;;1.50;97426.60;;;;110691;1251;41717;-65
2022/03/05 05:35:09;;;;;;;29.10;13.70;;;;;1.50;97429.40;;;;110583;1251;41269;-65
2022/03/05 05:37:39;;;;;;;26.30;12.30;;;;;1.56;97427.80;;;;110903;1250;41174;-64
2022/03/05 05:40:09;;;;;;;30.80;14.50;;;;;1.60;97427.20;;;;110611;1251;41320;-64
2022/03/05 05:42:38;;;;;;;28.80;15.40;;;;;1.58;97430.00;;;;110728;1250;42177;-65
2022/03/05 05:45:09;;;;;;;28.80;14.70;;;;;1.50;97434.40;;;;110646;1252;41491;-64
2022/03/05 05:47:38;;;;;;;31.80;15.10;;;;;1.50;97437.00;;;;110715;1251;41260;-65
2022/03/05 05:50:08;;;;;;;41.30;18.30;;;;;1.50;97435.60;;;;110471;1251;42118;-64
2022/03/05 05:52:38;;;;;;;56.60;24.40;;;;;1.50;97442.00;;;;110776;1251;41882;-65
2022/03/05 05:55:08;;;;;;;70.80;29.30;;;;;1.50;97442.40;;;;110915;1250;41197;-64
2022/03/05 05:57:37;;;;;;;67.00;27.40;;;;;1.40;97441.80;;;;110677;1251;41462;-63
2022/03/05 06:00:09;;;;;;;34.70;15.80;;;;;1.50;97445.20;;;;110905;1250;42392;-65
2022/03/05 06:02:42;;;;;;;33.40;16.70;;;;;1.50;97450.60;;;;110958;1250;41385;-65
2022/03/05 06:05:11;;;;;;;35.40;15.30;;;;;1.50;97453.80;;;;110587;1251;41297;-65
2022/03/05 06:07:41;;;;;;;34.00;17.80;;;;;1.50;97449.60;;;;110798;1250;41869;-66
2022/03/05 06:10:10;;;;;;;33.60;16.40;;;;;1.50;97455.40;;;;110912;1248;41195;-67
2022/03/05 06:12:40;;;;;;;32.90;15.10;;;;;1.50;97453.80;;;;110690;1253;41772;-65
2022/03/05 06:15:10;;;;;;;30.90;14.60;;;;;1.50;97452.60;;;;110659;1252;41747;-65
2022/03/05 06:17:43;;;;;;;29.50;14.10;;;;;1.54;97450.00;;;;110669;1251;41138;-64
2022/03/05 06:20:13;;;;;;;29.00;13.50;;;;;1.60;97451.80;;;;110625;1251;41403;-64
2022/03/05 06:22:43;;;;;;;32.50;14.80;;;;;1.60;97457.20;;;;110743;1253;41153;-63
2022/03/05 06:25:12;;;;;;;25.90;13.50;;;;;1.64;97457.80;;;;110748;1250;41934;-64
2022/03/05 06:27:41;;;;;;;29.50;13.20;;;;;1.70;97466.00;;;;110942;1249;41153;-64
2022/03/05 06:30:12;;;;;;;26.90;12.60;;;;;1.70;97461.80;;;;110818;1250;41136;-64
2022/03/05 06:32:41;;;;;;;31.30;14.10;;;;;1.70;97462.60;;;;110754;1251;41419;-65
2022/03/05 06:35:11;;;;;;;30.90;13.70;;;;;1.70;97464.60;;;;110777;1250;41731;-65
2022/03/05 06:37:40;;;;;;;29.80;14.90;;;;;1.80;97470.00;;;;110796;1250;41526;-64
2022/03/05 06:40:10;;;;;;;28.20;13.10;;;;;1.82;97470.40;;;;110644;1250;41307;-64
2022/03/05 06:42:40;;;;;;;26.40;12.20;;;;;1.84;97472.60;;;;110720;1250;42562;-65
2022/03/05 06:45:10;;;;;;;;;;;;;1.90;97474.20;;;;110649;1250;41246;-65
2022/03/05 06:47:39;;;;;;;27.80;13.10;;;;;1.90;97474.80;;;;110589;1254;41640;-64
2022/03/05 06:50:10;;;;;;;28.70;13.90;;;;;1.90;97480.20;;;;110735;1250;41178;-65
2022/03/05 06:52:39;;;;;;;22.90;11.90;;;;;1.90;97482.20;;;;110757;1249;41156;-64
2022/03/05 06:55:14;;;;;;;28.20;13.60;;;;;2.00;97479.40;;;;110920;1250;41267;-64
2022/03/05 06:57:44;;;;;;;24.80;12.00;;;;;2.00;97477.00;;;;110746;1250;42936;-64
2022/03/05 07:00:15;;;;;;;23.70;11.30;;;;;2.02;97478.60;;;;110935;1250;42026;-65
2022/03/05 07:02:44;;;;;;;27.30;14.40;;;;;2.10;97483.40;;;;110613;1251;41846;-64
2022/03/05 07:05:13;;;;;;;24.20;12.00;;;;;2.10;97485.60;;;;110743;1250;41943;-65
2022/03/05 07:07:44;;;;;;;29.30;12.40;;;;;2.20;97484.40;;;;110600;1251;42219;-65
2022/03/05 07:10:13;;;;;;;29.40;11.90;;;;;2.20;97482.20;;;;110868;1250;41935;-64
2022/03/05 07:12:42;;;;;;;30.00;15.00;;;;;2.30;97489.20;;;;110942;1248;41141;-64
2022/03/05 07:15:11;;;;;;;30.00;14.10;;;;;2.28;97490.80;;;;110716;1251;42224;-64
2022/03/05 07:17:51;;;;;;;33.20;15.30;;;;;2.30;97493.40;;;;110710;1250;41615;-64
2022/03/05 07:20:21;;;;;;;26.40;13.50;;;;;2.28;97497.00;;;;110954;1250;41200;-64
2022/03/05 07:22:51;;;;;;;25.90;12.70;;;;;2.30;97496.00;;;;110740;1250;41240;-65
2022/03/05 07:25:21;;;;;;;33.80;14.70;;;;;2.32;97493.20;;;;110700;1250;41288;-65
2022/03/05 07:27:50;;;;;;;28.50;13.60;;;;;2.30;97492.40;;;;110555;1252;41729;-65
2022/03/05 07:30:19;;;;;;;28.90;13.30;;;;;2.30;97497.40;;;;110757;1250;41528;-64
2022/03/05 07:32:50;;;;;;;30.10;14.40;;;;;2.40;97492.40;;;;110931;1250;41161;-66
2022/03/05 07:35:19;;;;;;;26.80;13.30;;;;;2.30;97498.00;;;;110718;1251;42371;-64
2022/03/05 07:37:48;;;;;;;28.00;13.60;;;;;2.40;97504.20;;;;110622;1251;42414;-63
2022/03/05 07:40:18;;;;;;;24.60;12.70;;;;;2.32;97500.20;;;;110581;1251;41155;-63
2022/03/05 07:42:48;;;;;;;28.30;12.70;;;;;2.50;97503.60;;;;110709;1250;41635;-65
2022/03/05 07:45:17;;;;;;;32.50;14.30;;;;;2.62;97504.00;;;;110648;1251;41131;-65
2022/03/05 07:47:47;;;;;;;29.40;14.20;;;;;2.70;97499.60;;;;110645;1250;41278;-64
2022/03/05 07:50:17;;;;;;;24.20;11.10;;;;;2.80;97500.00;;;;110573;1250;41558;-64
2022/03/05 07:52:45;;;;;;;27.10;12.10;;;;;2.90;97497.20;;;;110929;1250;41391;-64
2022/03/05 07:55:15;;;;;;;22.40;10.50;;;;;3.08;97507.20;;;;110934;1248;41140;-63
2022/03/05 07:57:44;;;;;;;22.00;10.40;;;;;3.22;97507.40;;;;110482;1254;42390;-64
2022/03/05 08:00:13;;;;;;;23.90;11.70;;;;;3.40;97505.20;;;;110884;1251;41168;-65
2022/03/05 08:02:50;;;;;;;32.50;15.20;;;;;3.50;97510.40;;;;110644;1251;41272;-64
2022/03/05 08:05:20;;;;;;;24.40;11.20;;;;;3.70;97508.20;;;;110595;1251;42268;-62
2022/03/05 08:07:49;;;;;;;53.40;24.10;;;;;3.80;97505.20;;;;110759;1251;41865;-67
2022/03/05 08:10:18;;;;;;;30.90;14.60;;;;;3.64;97513.20;;;;110715;1251;41723;-65
2022/03/05 08:12:48;;;;;;;26.60;12.00;;;;;3.66;97509.80;;;;110727;1250;41139;-66
2022/03/05 08:15:17;;;;;;;26.20;13.30;;;;;3.68;97508.80;;;;110841;1250;41362;-66
2022/03/05 08:17:57;;;;;;;27.30;12.10;;;;;3.70;97509.60;;;;110743;1250;41613;-64
2022/03/05 08:20:31;;;;;;;21.60;10.40;;;;;3.90;97512.20;;;;110767;1250;41330;-65
2022/03/05 08:23:00;;;;;;;21.10;9.70;;;;;4.00;97513.40;;;;110514;1249;41235;-65
2022/03/05 08:25:29;;;;;;;21.70;10.80;;;;;4.20;97515.80;;;;110773;1251;41195;-63
2022/03/05 08:27:58;;;;;;;26.40;10.80;;;;;4.30;97521.80;;;;110832;1250;42291;-63
2022/03/05 08:30:28;;;;;;;20.40;9.60;;;;;4.40;97515.80;;;;110701;1251;41651;-63
2022/03/05 08:32:57;;;;;;;24.80;11.10;;;;;4.60;97512.80;;;;110808;1250;41219;-61
2022/03/05 08:35:27;;;;;;;22.90;10.10;;;;;4.70;97515.40;;;;110724;1250;41180;-63
2022/03/05 08:37:59;;;;;;;20.50;10.10;;;;;4.80;97520.40;;;;110698;1250;42358;-63
2022/03/05 08:40:29;;;;;;;23.40;11.00;;;;;4.90;97524.00;;;;110892;1250;41214;-63
2022/03/05 08:42:58;;;;;;;22.10;10.20;;;;;5.00;97526.00;;;;110841;1251;41143;-64
2022/03/05 08:45:30;;;;;;;21.10;10.00;;;;;5.10;97523.00;;;;110836;1250;41191;-64
2022/03/05 08:47:59;;;;;;;20.80;9.80;;;;;5.20;97526.80;;;;110766;1249;42157;-64
2022/03/05 08:50:28;;;;;;;23.40;10.40;;;;;5.30;97523.00;;;;110911;1250;41146;-65
2022/03/05 08:52:57;;;;;;;22.90;10.50;;;;;5.40;97524.00;;;;110871;1250;41249;-65
2022/03/05 08:55:26;;;;;;;19.20;9.90;;;;;5.40;97526.80;;;;110732;1251;41283;-65
2022/03/05 08:57:55;;;;;;;23.00;10.40;;;;;5.50;97527.20;;;;110731;1250;41154;-61
2022/03/05 09:00:26;;;;;;;22.70;9.90;;;;;5.60;97527.60;;;;110831;1250;41363;-63
2022/03/05 09:02:55;;;;;;;19.10;9.80;;;;;5.70;97530.60;;;;110845;1248;41299;-63
2022/03/05 09:05:24;;;;;;;20.20;9.80;;;;;5.80;97528.20;;;;110753;1251;42738;-64
2022/03/05 09:07:53;;;;;;;23.60;10.10;;;;;5.90;97535.00;;;;110759;1251;41155;-64
2022/03/05 09:10:22;;;;;;;28.50;13.30;;;;;6.00;97532.60;;;;110723;1251;42912;-64
2022/03/05 09:12:52;;;;;;;28.60;13.60;;;;;5.76;97532.60;;;;110918;1250;41537;-64
2022/03/05 09:15:21;;;;;;;26.20;12.70;;;;;5.70;97535.80;;;;110884;1250;41194;-64
2022/03/05 09:17:50;;;;;;;31.50;15.20;;;;;5.60;97542.60;;;;110758;1250;41262;-64
2022/03/05 09:20:21;;;;;;;28.00;14.00;;;;;5.48;97542.00;;;;110709;1251;41248;-65
2022/03/05 09:22:50;;;;;;;;;;;;;5.34;97541.40;;;;110761;1249;41128;-64
2022/03/05 09:25:19;;;;;;;28.40;14.70;;;;;5.48;97543.60;;;;110901;1250;41254;-65
2022/03/05 09:27:48;;;;;;;28.80;13.30;;;;;5.40;97551.00;;;;110794;1250;41625;-65
2022/03/05 09:30:19;;;;;;;26.50;12.80;;;;;5.46;97542.20;;;;110879;1249;41229;-64
2022/03/05 09:32:48;;;;;;;29.90;16.80;;;;;5.50;97543.80;;;;110827;1250;41266;-64
2022/03/05 09:35:18;;;;;;;22.90;11.00;;;;;5.62;97543.00;;;;110861;1247;42613;-64
2022/03/05 09:37:47;;;;;;;25.80;11.00;;;;;6.34;97535.20;;;;110778;1250;41935;-64
2022/03/05 09:40:17;;;;;;;24.10;11.20;;;;;7.30;97534.20;;;;110852;1250;42694;-63
2022/03/05 09:42:46;;;;;;;21.10;10.50;;;;;7.92;97532.60;;;;110625;1250;41269;-63
2022/03/05 09:45:16;;;;;;;19.60;9.90;;;;;8.36;97531.40;;;;110768;1250;41128;-64
2022/03/05 09:47:46;;;;;;;21.40;11.20;;;;;8.76;97528.20;;;;110932;1250;41609;-63
2022/03/05 09:50:15;;;;;;;26.20;12.70;;;;;8.94;97529.80;;;;110657;1250;41820;-64
2022/03/05 09:52:44;;;;;;;22.90;11.40;;;;;8.90;97529.40;;;;110767;1250;41142;-65
2022/03/05 09:55:15;;;;;;;25.40;13.20;;;;;9.00;97525.20;;;;110878;1250;41385;-64
2022/03/05 09:57:44;;;;;;;25.20;13.20;;;;;8.68;97522.00;;;;110704;1251;41621;-62
2022/03/05 10:00:14;;;;;;;25.60;11.70;;;;;9.22;97522.00;;;;110947;1250;41157;-64
2022/03/05 10:02:46;;;;;;;21.00;10.20;;;;;9.78;97521.80;;;;110769;1251;41191;-64
2022/03/05 10:05:24;;;;;;;24.30;12.20;;;;;10.30;97522.00;;;;110752;1250;41893;-63
2022/03/05 10:08:08;;;;;;;21.00;10.10;;;;;10.72;97512.60;;;;110904;1250;41773;-63
2022/03/05 10:10:46;;;;;;;23.30;11.30;;;;;11.12;97510.80;;;;110831;1250;41148;-62
2022/03/05 10:13:21;;;;;;;20.50;10.00;;;;;11.80;97503.00;;;;110745;1250;41597;-63
2022/03/05 10:15:54;;;;;;;20.70;10.90;;;;;12.94;97511.00;;;;110861;1250;42095;-64
2022/03/05 10:18:37;;;;;;;27.40;13.00;;;;;13.02;97509.80;;;;110849;1250;41732;-64
2022/03/05 10:21:10;;;;;;;19.40;10.10;;;;;11.12;97514.80;;;;110530;1252;41253;-63
2022/03/05 10:23:43;;;;;;;20.40;10.30;;;;;11.22;97513.20;;;;110607;1252;41261;-62
2022/03/05 10:26:12;;;;;;;20.60;10.10;;;;;10.60;97520.20;;;;110611;1253;41189;-63
2022/03/05 10:28:42;;;;;;;22.70;10.00;;;;;10.40;97516.40;;;;110845;1250;41269;-62
2022/03/05 10:31:12;;;;;;;22.20;10.10;;;;;10.10;97523.40;;;;110625;1251;41261;-62
2022/03/05 10:33:43;;;;;;;21.40;10.50;;;;;9.80;97525.80;;;;110945;1250;41258;-63
2022/03/05 10:36:21;;;;;;;21.10;10.30;;;;;9.70;97525.00;;;;110766;1250;41614;-63
2022/03/05 10:39:02;;;;;;;19.20;10.20;;;;;9.66;97523.20;;;;110664;1251;41135;-63
2022/03/05 10:41:32;;;;;;;;;;;;;9.70;97520.20;;;;110923;1247;41943;-63
2022/03/05 10:44:06;;;;;;;19.90;9.30;;;;;9.54;97519.40;;;;110941;1250;41167;-64
2022/03/05 10:46:58;;;;;;;22.30;10.80;;;;;9.50;97517.60;;;;110855;1250;42056;-63
2022/03/05 10:49:28;;;;;;;22.70;10.80;;;;;9.40;97518.60;;;;110720;1250;41310;-63
2022/03/05 10:52:00;;;;;;;22.50;10.40;;;;;9.40;97517.00;;;;110630;1252;41807;-65
2022/03/05 10:54:31;;;;;;;20.40;9.80;;;;;9.30;97521.20;;;;110632;1252;41155;-63
2022/03/05 10:57:06;;;;;;;21.00;11.00;;;;;9.20;97524.60;;;;110782;1251;41336;-63
2022/03/05 10:59:40;;;;;;;19.00;9.80;;;;;9.00;97521.60;;;;110707;1249;41192;-63
2022/03/05 11:02:14;;;;;;;18.30;9.20;;;;;8.60;97522.40;;;;110801;1250;41205;-63
2022/03/05 11:04:45;;;;;;;21.20;9.90;;;;;8.50;97524.00;;;;110747;1250;41254;-62
2022/03/05 11:07:20;;;;;;;16.80;8.20;;;;;8.44;97522.40;;;;110660;1250;41174;-64
2022/03/05 11:09:49;;;;;;;15.30;7.60;;;;;8.40;97520.60;;;;110644;1250;41556;-62
2022/03/05 11:12:21;;;;;;;18.10;8.70;;;;;8.32;97518.60;;;;110723;1250;41154;-63
2022/03/05 11:14:50;;;;;;;;;;;;;8.30;97518.00;;;;110640;1251;42097;-63
2022/03/05 11:17:20;;;;;;;16.70;8.00;;;;;8.30;97519.00;;;;110591;1251;41778;-63
2022/03/05 11:19:52;;;;;;;17.00;8.20;;;;;8.40;97510.00;;;;110748;1251;41425;-63
2022/03/05 11:22:21;;;;;;;20.90;8.40;;;;;8.30;97514.60;;;;110510;1251;41142;-62
2022/03/05 11:24:50;;;;;;;18.40;9.50;;;;;8.40;97511.60;;;;110721;1251;41255;-63
2022/03/05 11:27:19;;;;;;;17.90;9.10;;;;;8.40;97511.40;;;;110699;1250;41721;-63
2022/03/05 11:29:55;;;;;;;20.20;10.00;;;;;8.40;97509.60;;;;110640;1250;42646;-63
2022/03/05 11:32:31;;;;;;;18.20;9.10;;;;;8.40;97506.00;;;;110806;1250;41205;-63
2022/03/05 11:35:00;;;;;;;21.30;9.20;;;;;8.30;97502.60;;;;110792;1250;41687;-63
2022/03/05 11:37:34;;;;;;;18.80;8.30;;;;;8.30;97507.40;;;;110711;1249;41282;-63
2022/03/05 11:40:05;;;;;;;47.00;22.00;;;;;8.20;97502.20;;;;110651;1252;41138;-63
2022/03/05 11:42:39;;;;;;;45.50;20.60;;;;;8.04;97504.60;;;;110766;1250;41716;-63
2022/03/05 11:45:26;;;;;;;55.00;26.50;;;;;7.92;97499.20;;;;110861;1250;41148;-63
2022/03/05 11:48:22;;;;;;;59.10;31.00;;;;;7.80;97501.60;;;;110512;1251;42234;-63
2022/03/05 11:50:53;;;;;;;34.10;19.50;;;;;7.80;97502.80;;;;110836;1249;42073;-63
2022/03/05 11:53:24;;;;;;;31.10;16.10;;;;;7.70;97503.20;;;;110706;1247;41148;-64
2022/03/05 11:55:53;;;;;;;;;;;;;7.50;97501.20;;;;111012;1248;41665;-64
2022/03/05 11:58:30;;;;;;;24.70;12.70;;;;;7.42;97499.80;;;;110824;1251;41143;-64
2022/03/05 12:01:30;;;;;;;24.80;12.20;;;;;7.16;97500.40;;;;110751;1251;41488;-63
2022/03/05 12:04:04;;;;;;;26.90;12.50;;;;;6.94;97500.20;;;;110622;1250;41848;-61
2022/03/05 12:06:46;;;;;;;20.00;10.80;;;;;6.70;97502.80;;;;110706;1250;41252;-65
2022/03/05 12:09:56;;;;;;;23.30;10.50;;;;;6.60;97500.00;;;;110942;1250;41995;-64
2022/03/05 12:12:25;;;;;;;22.30;11.60;;;;;6.50;97503.20;;;;110073;1257;41171;-64
2022/03/05 12:15:06;;;;;;;20.10;10.50;;;;;6.38;97502.20;;;;110077;1257;42713;-63
2022/03/05 12:17:44;;;;;;;21.60;9.30;;;;;6.40;97499.40;;;;110039;1258;41557;-63
2022/03/05 12:20:16;;;;;;;17.40;8.00;;;;;6.50;97497.40;;;;110039;1258;41166;-64
2022/03/05 12:22:47;;;;;;;18.30;7.80;;;;;6.60;97496.40;;;;109982;1259;41182;-66
2022/03/05 12:25:18;;;;;;;18.50;8.80;;;;;6.78;97490.80;;;;110076;1257;41189;-63